createdAt,value
2019-04-20T00:00:03.050Z,79.78
2019-04-20T00:00:58.464Z,79.78
2019-04-20T00:01:56.984Z,79.4
2019-04-20T00:02:58.508Z,79.88
2019-04-20T00:03:55.293Z,80.35
2019-04-20T00:04:52.128Z,80.35
2019-04-20T00:05:53.060Z,80.16
2019-04-20T00:06:56.383Z,80.12
2019-04-20T00:07:52.829Z,80.64
2019-04-20T00:09:07.214Z,81.17
2019-04-20T00:10:09.757Z,80.73
2019-04-20T00:11:07.814Z,81.07
2019-04-20T00:12:17.645Z,81.65
2019-04-20T00:13:44.255Z,81.46
2019-04-20T00:14:35.410Z,81.84
2019-04-20T00:15:28.137Z,81.74
2019-04-20T00:16:29.242Z,81.74
2019-04-20T00:17:28.975Z,81.65
2019-04-20T00:18:42.092Z,82.12
2019-04-20T00:19:43.973Z,81.65
2019-04-20T00:20:35.829Z,81.65
2019-04-20T00:21:28.705Z,81.84
2019-04-20T00:22:42.439Z,81.84
2019-04-20T00:23:38.252Z,81.65
2019-04-20T00:24:35.645Z,81.26
2019-04-20T00:25:54.229Z,81.26
2019-04-20T00:27:55.319Z,81.46
2019-04-20T00:29:54.101Z,81.65
2019-04-20T00:31:48.783Z,81.17
2019-04-20T00:33:07.242Z,81.17
2019-04-20T00:34:25.495Z,81.74
2019-04-20T00:35:10.923Z,81.89
2019-04-20T00:36:13.597Z,82.37
2019-04-20T00:37:11.362Z,82.65
2019-04-20T00:38:11.625Z,82.27
2019-04-20T00:39:15.423Z,82.84
2019-04-20T00:40:10.531Z,82.75
2019-04-20T00:41:17.181Z,82.84
2019-04-20T00:42:17.649Z,82.65
2019-04-20T00:43:12.909Z,83.22
2019-04-20T00:44:23.135Z,83.03
2019-04-20T00:45:25.506Z,83.41
2019-04-20T00:46:28.042Z,83.75
2019-04-20T00:47:50.758Z,83.22
2019-04-20T00:49:01.244Z,83.22
2019-04-20T00:50:55.134Z,83.13
2019-04-20T00:53:06.609Z,83.32
2019-04-20T00:53:56.978Z,83.22
2019-04-20T00:54:52.110Z,83.03
2019-04-20T00:55:51.213Z,83.03
2019-04-20T00:56:52.043Z,83.22
2019-04-20T00:58:09.238Z,83.61
2019-04-20T00:59:27.384Z,84.27
2019-04-20T01:01:42.109Z,84.13
2019-04-20T01:03:27.534Z,84.75
2019-04-20T01:05:27.445Z,84.33
2019-04-20T01:07:14.906Z,85.08
2019-04-20T01:08:06.212Z,85.28
2019-04-20T01:08:59.674Z,85.28
2019-04-20T01:09:58.857Z,85.37
2019-04-20T01:11:01.335Z,84.61
2019-04-20T01:12:03.130Z,85.28
2019-04-20T01:13:12.131Z,85.56
2019-04-20T01:14:10.531Z,85.56
2019-04-20T01:15:07.695Z,85.66
2019-04-20T01:16:21.266Z,85.66
2019-04-20T01:17:14.426Z,85.56
2019-04-20T01:18:04.068Z,85.66
2019-04-20T01:19:03.242Z,85.66
2019-04-20T01:20:03.296Z,85.66
2019-04-20T01:21:17.797Z,86.32
2019-04-20T01:22:13.462Z,85.71
2019-04-20T01:23:17.164Z,86.32
2019-04-20T01:24:08.736Z,86.09
2019-04-20T01:25:18.015Z,85.61
2019-04-20T01:26:14.307Z,85.99
2019-04-20T01:27:11.150Z,85.61
2019-04-20T01:29:05.988Z,85.9
2019-04-20T01:30:14.510Z,85.8
2019-04-20T01:31:29.192Z,85.66
2019-04-20T01:32:59.541Z,86.09
2019-04-20T01:34:30.902Z,85.9
2019-04-20T01:36:25.254Z,85.56
2019-04-20T01:38:20.758Z,86.94
2019-04-20T01:39:43.078Z,85.85
2019-04-20T01:40:29.450Z,85.8
2019-04-20T01:41:28.568Z,85.42
2019-04-20T01:42:28.156Z,86.09
2019-04-20T01:43:27.568Z,86.28
2019-04-20T01:44:39.085Z,85.56
2019-04-20T01:45:37.611Z,85.56
2019-04-20T01:46:32.015Z,85.37
2019-04-20T01:47:43.877Z,85.75
2019-04-20T01:48:35.535Z,85.66
2019-04-20T01:49:35.561Z,85.18
2019-04-20T01:50:37.087Z,84.99
2019-04-20T01:51:46.824Z,84.8
2019-04-20T01:52:57.646Z,85.37
2019-04-20T01:54:52.139Z,84.89
2019-04-20T01:56:51.874Z,84.89
2019-04-20T01:58:29.854Z,84.99
2019-04-20T02:00:03.525Z,84.7
2019-04-20T02:00:47.813Z,84.89
2019-04-20T02:01:45.912Z,84.8
2019-04-20T02:02:56.967Z,84.89
2019-04-20T02:03:51.855Z,84.7
2019-04-20T02:04:49.211Z,84.23
2019-04-20T02:05:51.158Z,84.46
2019-04-20T02:06:53.761Z,84.42
2019-04-20T02:07:52.619Z,84.89
2019-04-20T02:08:44.032Z,85.08
2019-04-20T02:09:58.210Z,85.08
2019-04-20T02:10:55.791Z,85.37
2019-04-20T02:11:48.724Z,85.18
2019-04-20T02:12:48.787Z,85.37
2019-04-20T02:13:56.325Z,85.08
2019-04-20T02:14:55.990Z,85.28
2019-04-20T02:15:54.368Z,85.28
2019-04-20T02:16:58.171Z,85.28
2019-04-20T02:18:22.515Z,85.18
2019-04-20T02:20:22.644Z,84.7
2019-04-20T02:22:19.643Z,84.7
2019-04-20T02:23:51.396Z,84.8
2019-04-20T02:24:33.932Z,84.7
2019-04-20T02:25:31.703Z,84.7
2019-04-20T02:26:32.826Z,84.7
2019-04-20T02:27:48.531Z,84.61
2019-04-20T02:29:50.078Z,85.47
2019-04-20T02:37:23.419Z,85.75
2019-04-20T02:40:56.588Z,85.66
2019-04-20T02:51:05.610Z,85.66
2019-04-20T02:54:44.758Z,85.99
2019-04-20T02:57:52.585Z,85.99
2019-04-20T03:01:03.604Z,86.47
2019-04-20T03:03:03.096Z,85.61
2019-04-20T03:04:06.535Z,85.99
2019-04-20T03:05:29.200Z,85.8
2019-04-20T03:07:11.446Z,86.38
2019-04-20T03:09:14.979Z,86.57
2019-04-20T03:12:07.813Z,86.47
2019-04-20T03:14:26.372Z,85.99
2019-04-20T03:16:31.559Z,86.57
2019-04-20T03:18:44.179Z,85.9
2019-04-20T03:20:21.988Z,85.9
2019-04-20T03:23:10.066Z,86.28
2019-04-20T03:26:04.909Z,87.32
2019-04-20T03:27:55.878Z,86.85
2019-04-20T03:30:14.491Z,86.09
2019-04-20T03:37:19.175Z,87.28
2019-04-20T03:39:35.834Z,87.47
2019-04-20T03:41:04.707Z,87.85
2019-04-20T03:41:56.716Z,87.66
2019-04-20T03:42:52.607Z,87.85
2019-04-20T03:43:53.983Z,87.76
2019-04-20T03:45:05.712Z,87.28
2019-04-20T03:46:06.210Z,87.57
2019-04-20T03:47:05.149Z,87.66
2019-04-20T03:48:29.227Z,87.76
2019-04-20T03:50:40.690Z,87.47
2019-04-20T03:53:02.374Z,87.57
2019-04-20T03:54:54.115Z,88.04
2019-04-20T03:57:20.823Z,87.95
2019-04-20T03:59:23.244Z,88.33
2019-04-20T04:02:01.441Z,88.33
2019-04-20T04:04:58.629Z,88.71
2019-04-20T04:06:28.385Z,89.42
2019-04-20T04:07:30.256Z,90.37
2019-04-20T04:08:34.328Z,90.19
2019-04-20T04:10:12.607Z,89.71
2019-04-20T04:12:05.504Z,89.61
2019-04-20T04:12:50.088Z,89.52
2019-04-20T04:13:47.899Z,89.61
2019-04-20T04:14:47.679Z,89.52
2019-04-20T04:15:59.013Z,89.28
2019-04-20T04:16:57.286Z,89.9
2019-04-20T04:17:50.223Z,89.42
2019-04-20T04:19:01.295Z,89.52
2019-04-20T04:20:03.376Z,90.19
2019-04-20T04:21:01.843Z,89.9
2019-04-20T04:22:24.690Z,90.09
2019-04-20T04:24:12.713Z,90.56
2019-04-20T04:25:53.019Z,90.94
2019-04-20T04:27:40.021Z,90
2019-04-20T04:29:46.553Z,89.9
2019-04-20T04:31:55.190Z,89.9
2019-04-20T04:34:48.448Z,89.42
2019-04-20T04:36:33.738Z,89.61
2019-04-20T04:38:52.794Z,89.52
2019-04-20T04:41:22.615Z,89.8
2019-04-20T04:43:36.857Z,89.61
2019-04-20T04:45:04.560Z,89.61
2019-04-20T04:45:47.346Z,89.61
2019-04-20T04:47:00.141Z,89.9
2019-04-20T04:47:47.906Z,89.61
2019-04-20T04:48:52.807Z,89.42
2019-04-20T04:50:05.522Z,89.9
2019-04-20T04:50:59.473Z,89.04
2019-04-20T04:52:05.312Z,89.52
2019-04-20T04:53:07.935Z,89.52
2019-04-20T04:54:27.819Z,89.8
2019-04-20T04:55:47.601Z,89.52
2019-04-20T04:56:30.638Z,89.42
2019-04-20T04:57:28.417Z,89.61
2019-04-20T04:58:29.678Z,89.47
2019-04-20T04:59:29.552Z,89.14
2019-04-20T05:00:33.964Z,89.9
2019-04-20T05:01:35.265Z,89.42
2019-04-20T05:02:40.566Z,89.71
2019-04-20T05:06:05.912Z,89.85
2019-04-20T05:07:59.194Z,89.47
2019-04-20T05:08:56.493Z,89.47
2019-04-20T05:09:46.539Z,89.47
2019-04-20T05:10:46.298Z,89.47
2019-04-20T05:11:49.571Z,89.37
2019-04-20T05:12:46.561Z,89.66
2019-04-20T05:14:01.985Z,89.47
2019-04-20T05:15:07.481Z,90.04
2019-04-20T05:16:49.765Z,90.14
2019-04-20T05:19:13.126Z,90.04
2019-04-20T05:21:29.690Z,90.47
2019-04-20T05:23:37.141Z,90.28
2019-04-20T05:25:35.789Z,90.18
2019-04-20T05:27:50.729Z,89.99
2019-04-20T05:29:12.355Z,90.37
2019-04-20T05:29:52.843Z,90.18
2019-04-20T05:31:03.380Z,90.28
2019-04-20T05:32:05.832Z,89.51
2019-04-20T05:33:06.386Z,89.61
2019-04-20T05:35:14.482Z,90.56
2019-04-20T05:37:48.539Z,90.37
2019-04-20T05:40:26.052Z,90.32
2019-04-20T05:42:42.502Z,89.47
2019-04-20T05:44:29.364Z,90.61
2019-04-20T05:46:36.082Z,90.51
2019-04-20T05:48:45.566Z,89.56
2019-04-20T05:50:48.082Z,88.84
2019-04-20T05:53:26.276Z,87.6
2019-04-20T05:55:59.065Z,86.6
2019-04-20T05:58:32.561Z,85.31
2019-04-20T06:01:00.065Z,82.97
2019-04-20T06:03:20.140Z,81.96
2019-04-20T06:06:07.518Z,81.24
2019-04-20T06:08:37.088Z,79.94
2019-04-20T06:11:20.576Z,78.74
2019-04-20T06:13:32.264Z,78.2
2019-04-20T06:15:03.966Z,77.28
2019-04-20T06:17:20.778Z,75.95
2019-04-20T06:19:35.293Z,74.26
2019-04-20T06:22:09.871Z,73.91
2019-04-20T06:25:14.331Z,72.71
2019-04-20T06:28:01.767Z,73.13
2019-04-20T06:30:05.516Z,72.59
2019-04-20T06:32:26.957Z,71.47
2019-04-20T06:35:18.537Z,69.65
2019-04-20T06:38:34.212Z,69.97
2019-04-20T06:44:31.618Z,66.58
2019-04-20T06:47:14.192Z,63.02
2019-04-20T06:50:01.115Z,62.45
2019-04-20T06:54:29.499Z,61.07
2019-04-20T06:57:05.670Z,59.56
2019-04-20T06:59:31.587Z,59.3
2019-04-20T07:02:16.546Z,58.34
2019-04-20T07:11:27.862Z,55.73
2019-04-20T07:13:17.505Z,55.89
2019-04-20T07:14:27.077Z,55.96
2019-04-20T07:16:17.206Z,56.35
2019-04-20T07:18:54.436Z,54.93
2019-04-20T07:21:11.545Z,54.6
2019-04-20T07:24:03.004Z,53.75
2019-04-20T07:26:43.913Z,54.02
2019-04-20T07:29:25.424Z,53.44
2019-04-20T07:31:39.217Z,53.37
2019-04-20T07:33:51.916Z,53.11
2019-04-20T07:36:11.650Z,54.21
2019-04-20T07:39:06.947Z,54.24
2019-04-20T07:41:47.605Z,54.31
2019-04-20T07:45:00.714Z,52.98
2019-04-20T07:48:01.219Z,53.2
2019-04-20T07:50:04.310Z,53.01
2019-04-20T07:51:26.412Z,53.59
2019-04-20T07:52:10.254Z,53.11
2019-04-20T07:53:40.108Z,53.39
2019-04-20T07:56:42.056Z,53.59
2019-04-20T07:58:30.352Z,54.27
2019-04-20T07:59:58.540Z,54.6
2019-04-20T08:03:02.852Z,53.85
2019-04-20T08:05:14.814Z,53.08
2019-04-20T08:06:25.815Z,52.81
2019-04-20T08:07:14.065Z,52.5
2019-04-20T08:08:43.412Z,53.08
2019-04-20T08:10:02.800Z,52.94
2019-04-20T08:12:01.318Z,52.45
2019-04-20T08:14:44.252Z,52.53
2019-04-20T08:18:06.135Z,51.9
2019-04-20T08:20:19.840Z,53.13
2019-04-20T08:22:51.464Z,51.15
2019-04-20T08:25:08.053Z,50.74
2019-04-20T08:26:30.844Z,50.67
2019-04-20T08:27:29.595Z,51.25
2019-04-20T08:28:35.793Z,50.7
2019-04-20T08:29:58.696Z,50.79
2019-04-20T08:32:04.000Z,50.09
2019-04-20T08:34:34.932Z,48.95
2019-04-20T08:37:05.806Z,48.39
2019-04-20T08:40:06.541Z,48.39
2019-04-20T08:42:10.069Z,47.96
2019-04-20T08:45:23.400Z,47.64
2019-04-20T08:47:56.202Z,45.75
2019-04-20T08:50:32.508Z,46.62
2019-04-20T08:53:35.914Z,45.17
2019-04-20T08:55:33.022Z,44.42
2019-04-20T08:56:52.096Z,43.06
2019-04-20T08:57:35.541Z,41.99
2019-04-20T08:58:34.471Z,42.26
2019-04-20T08:59:40.121Z,42.46
2019-04-20T09:00:49.480Z,42.85
2019-04-20T09:01:39.355Z,42.86
2019-04-20T09:02:36.628Z,42.57
2019-04-20T09:03:58.732Z,42.67
2019-04-20T09:05:06.968Z,42.79
2019-04-20T09:06:39.787Z,42.3
2019-04-20T09:07:48.820Z,41.92
2019-04-20T09:09:20.536Z,41.24
2019-04-20T09:11:48.993Z,41.45
2019-04-20T09:13:31.926Z,41.94
2019-04-20T09:14:12.169Z,41.14
2019-04-20T09:15:12.500Z,40.85
2019-04-20T09:16:10.836Z,40.75
2019-04-20T09:17:23.994Z,40.75
2019-04-20T09:18:30.764Z,40.52
2019-04-20T09:19:26.975Z,40.25
2019-04-20T09:20:31.602Z,40.36
2019-04-20T09:21:38.628Z,40.83
2019-04-20T09:23:16.472Z,40.83
2019-04-20T09:27:40.440Z,40.25
2019-04-20T09:28:56.591Z,40.36
2019-04-20T09:30:31.854Z,41.33
2019-04-20T09:32:11.041Z,41.8
2019-04-20T09:34:19.927Z,41.22
2019-04-20T09:36:23.517Z,40.61
2019-04-20T09:38:24.806Z,40.44
2019-04-20T09:39:39.221Z,40.54
2019-04-20T09:41:58.421Z,40.34
2019-04-20T09:42:12.805Z,40.83
2019-04-20T09:43:16.962Z,41.7
2019-04-20T09:44:13.762Z,40.73
2019-04-20T09:45:32.880Z,40.46
2019-04-20T09:46:15.700Z,40.46
2019-04-20T09:47:14.121Z,41.39
2019-04-20T09:48:31.673Z,41.76
2019-04-20T09:49:47.985Z,41.56
2019-04-20T09:51:43.494Z,42.41
2019-04-20T09:53:29.322Z,41.55
2019-04-20T09:55:21.519Z,42.32
2019-04-20T09:57:08.806Z,42.3
2019-04-20T09:58:28.873Z,41.45
2019-04-20T10:00:36.802Z,41.64
2019-04-20T10:01:55.635Z,40.5
2019-04-20T10:02:42.912Z,39.24
2019-04-20T10:03:40.836Z,39.45
2019-04-20T10:04:40.524Z,40.52
2019-04-20T10:05:41.187Z,39.45
2019-04-20T10:06:41.427Z,40.33
2019-04-20T10:07:42.547Z,39.47
2019-04-20T10:08:52.834Z,40.42
2019-04-20T10:09:46.959Z,40.42
2019-04-20T10:10:46.927Z,40.71
2019-04-20T10:11:43.686Z,40.31
2019-04-20T10:12:40.281Z,39.36
2019-04-20T10:13:40.961Z,38.58
2019-04-20T10:14:41.152Z,38.96
2019-04-20T10:15:41.560Z,39.16
2019-04-20T10:16:41.718Z,39.34
2019-04-20T10:17:41.468Z,39.72
2019-04-20T10:18:50.504Z,39.53
2019-04-20T10:19:43.568Z,38.87
2019-04-20T10:20:43.867Z,38.87
2019-04-20T10:22:06.524Z,38.78
2019-04-20T10:23:06.449Z,38.17
2019-04-20T10:24:06.283Z,38.39
2019-04-20T10:25:06.533Z,39.06
2019-04-20T10:26:05.211Z,39.32
2019-04-20T10:27:06.290Z,40.79
2019-04-20T10:28:05.405Z,41.27
2019-04-20T10:29:05.624Z,41.17
2019-04-20T10:30:08.303Z,41.74
2019-04-20T10:31:06.384Z,41.35
2019-04-20T10:32:12.409Z,41.33
2019-04-20T10:33:05.637Z,41.76
2019-04-20T10:34:04.514Z,42.13
2019-04-20T10:35:06.468Z,42.14
2019-04-20T10:36:05.624Z,42.54
2019-04-20T10:37:05.809Z,43.04
2019-04-20T10:38:05.302Z,43.54
2019-04-20T10:39:06.492Z,40.95
2019-04-20T10:40:06.726Z,41.43
2019-04-20T10:41:27.637Z,41.41
2019-04-20T10:42:08.058Z,41.3
2019-04-20T10:43:08.031Z,41.3
2019-04-20T10:44:07.009Z,41.08
2019-04-20T10:45:05.884Z,41.78
2019-04-20T10:46:06.796Z,41.63
2019-04-20T10:47:07.098Z,41.31
2019-04-20T10:48:06.170Z,41.53
2019-04-20T10:49:08.120Z,41.24
2019-04-20T10:50:06.991Z,40.85
2019-04-20T10:51:08.164Z,40.56
2019-04-20T10:52:05.455Z,40.58
2019-04-20T10:53:05.713Z,40.48
2019-04-20T10:54:06.609Z,41.45
2019-04-20T10:55:06.134Z,40.48
2019-04-20T10:56:09.639Z,40.5
2019-04-20T10:57:05.707Z,40.58
2019-04-20T10:58:04.509Z,40.54
2019-04-20T10:59:05.530Z,40.83
2019-04-20T11:00:05.719Z,41.41
2019-04-20T11:01:04.549Z,40.34
2019-04-20T11:02:05.644Z,39.49
2019-04-20T11:03:05.769Z,39.69
2019-04-20T11:04:05.687Z,39.29
2019-04-20T11:05:06.404Z,39.03
2019-04-20T11:06:06.698Z,39.49
2019-04-20T11:07:05.529Z,40.17
2019-04-20T11:08:04.880Z,40.67
2019-04-20T11:09:05.211Z,39.7
2019-04-20T11:10:22.675Z,39.29
2019-04-20T11:11:27.311Z,39.29
2019-04-20T11:12:16.522Z,39.51
2019-04-20T11:13:15.263Z,39.39
2019-04-20T11:14:29.664Z,39.61
2019-04-20T11:15:16.430Z,38.64
2019-04-20T11:16:15.254Z,39.49
2019-04-20T11:17:16.347Z,40.09
2019-04-20T11:18:17.327Z,40.25
2019-04-20T11:19:16.193Z,40.08
2019-04-20T11:20:15.610Z,40.15
2019-04-20T11:21:17.381Z,39.49
2019-04-20T11:22:16.582Z,39.59
2019-04-20T11:23:16.579Z,39.22
2019-04-20T11:24:16.361Z,39.29
2019-04-20T11:25:16.457Z,38.91
2019-04-20T11:26:18.007Z,38.32
2019-04-20T11:27:16.273Z,38.44
2019-04-20T11:28:16.455Z,39.12
2019-04-20T11:29:18.079Z,38.68
2019-04-20T11:30:17.924Z,38.39
2019-04-20T11:31:16.561Z,37.73
2019-04-20T11:32:17.989Z,38.19
2019-04-20T11:33:18.126Z,38.19
2019-04-20T11:34:28.306Z,39.28
2019-04-20T11:35:32.581Z,39.69
2019-04-20T11:36:17.016Z,39.49
2019-04-20T11:37:16.913Z,38.91
2019-04-20T11:38:19.476Z,39.37
2019-04-20T11:39:16.814Z,39.78
2019-04-20T11:40:16.978Z,39.8
2019-04-20T11:41:29.062Z,39.51
2019-04-20T11:42:17.352Z,39.47
2019-04-20T11:43:17.701Z,39.39
2019-04-20T11:44:17.783Z,38.23
2019-04-20T11:45:15.672Z,39.03
2019-04-20T11:46:16.487Z,37.86
2019-04-20T11:47:16.636Z,36.79
2019-04-20T11:48:16.384Z,38.15
2019-04-20T11:49:17.391Z,38.23
2019-04-20T11:50:17.723Z,38.13
2019-04-20T11:51:16.544Z,38.12
2019-04-20T11:52:20.112Z,37.74
2019-04-20T11:53:17.329Z,37.94
2019-04-20T11:57:49.837Z,38.23
2019-04-20T11:58:38.898Z,38.68
2019-04-20T11:59:38.989Z,38.99
2019-04-20T12:00:55.939Z,39.37
2019-04-20T12:01:51.782Z,39.26
2019-04-20T12:02:44.789Z,38.87
2019-04-20T12:04:01.595Z,39.08
2019-04-20T12:05:20.890Z,39.69
2019-04-20T12:06:06.971Z,39.11
2019-04-20T12:07:00.897Z,39.18
2019-04-20T12:07:58.817Z,39.55
2019-04-20T12:09:00.909Z,39.47
2019-04-20T12:10:11.956Z,39.47
2019-04-20T12:11:18.540Z,38.99
2019-04-20T12:12:36.696Z,38.62
2019-04-20T12:13:18.414Z,39.18
2019-04-20T12:14:16.608Z,39.36
2019-04-20T12:15:16.813Z,39.29
2019-04-20T12:16:17.287Z,39.41
2019-04-20T12:17:17.559Z,38.64
2019-04-20T12:18:17.809Z,37.49
2019-04-20T12:19:15.479Z,36.79
2019-04-20T12:20:16.622Z,37.18
2019-04-20T12:21:16.737Z,37.76
2019-04-20T12:22:16.476Z,38.71
2019-04-20T12:23:16.005Z,39.41
2019-04-20T12:24:16.345Z,38.64
2019-04-20T12:25:16.061Z,38.25
2019-04-20T12:26:16.082Z,38.73
2019-04-20T12:27:16.573Z,39.82
2019-04-20T12:28:17.834Z,39.16
2019-04-20T12:29:16.670Z,38.96
2019-04-20T12:30:15.517Z,37.78
2019-04-20T12:31:25.893Z,39.45
2019-04-20T12:32:16.699Z,39.36
2019-04-20T12:33:17.668Z,37.99
2019-04-20T12:34:16.132Z,37.7
2019-04-20T12:35:18.096Z,37.68
2019-04-20T12:36:16.309Z,37.88
2019-04-20T12:37:16.016Z,38.19
2019-04-20T12:38:16.934Z,39.16
2019-04-20T12:39:17.214Z,38.31
2019-04-20T12:40:16.310Z,37.92
2019-04-20T12:41:18.019Z,37.78
2019-04-20T12:42:16.893Z,37.88
2019-04-20T12:43:17.192Z,38.44
2019-04-20T12:44:17.513Z,38.73
2019-04-20T12:45:17.580Z,38.15
2019-04-20T12:46:21.454Z,38.07
2019-04-20T12:47:17.451Z,38.15
2019-04-20T12:48:17.508Z,38.71
2019-04-20T12:49:17.854Z,38.15
2019-04-20T12:50:17.308Z,39.2
2019-04-20T12:51:17.412Z,37.96
2019-04-20T12:52:16.565Z,38.25
2019-04-20T12:53:16.904Z,37.76
2019-04-20T12:54:16.557Z,38.06
2019-04-20T12:55:16.631Z,37.86
2019-04-20T12:56:17.410Z,37.88
2019-04-20T12:57:18.460Z,39.24
2019-04-20T12:58:16.605Z,38.65
2019-04-20T12:59:17.663Z,38.07
2019-04-20T13:00:15.484Z,38.77
2019-04-20T13:01:19.007Z,39.16
2019-04-20T13:02:17.476Z,37.9
2019-04-20T13:03:17.249Z,37.98
2019-04-20T13:04:18.401Z,37.6
2019-04-20T13:05:17.463Z,36.32
2019-04-20T13:06:16.826Z,36.22
2019-04-20T13:07:15.679Z,37.08
2019-04-20T13:08:28.366Z,36.52
2019-04-20T13:09:16.731Z,36.22
2019-04-20T13:10:17.742Z,36.21
2019-04-20T13:11:16.259Z,36.04
2019-04-20T13:12:17.378Z,35.53
2019-04-20T13:13:16.545Z,35.63
2019-04-20T13:14:16.547Z,35.45
2019-04-20T13:15:18.169Z,35.66
2019-04-20T13:16:16.390Z,35.08
2019-04-20T13:17:16.637Z,36.22
2019-04-20T13:18:15.397Z,36.52
2019-04-20T13:19:17.027Z,35.64
2019-04-20T13:20:16.723Z,35.55
2019-04-20T13:21:16.714Z,35.37
2019-04-20T13:22:16.907Z,35.33
2019-04-20T13:23:17.114Z,35.33
2019-04-20T13:24:16.703Z,35.64
2019-04-20T13:25:16.856Z,35.45
2019-04-20T13:26:17.519Z,35.45
2019-04-20T13:27:17.503Z,34.5
2019-04-20T13:28:16.822Z,34.5
2019-04-20T13:29:15.591Z,34.28
2019-04-20T13:30:16.837Z,34.3
2019-04-20T13:31:17.506Z,35.57
2019-04-20T13:32:17.718Z,34.59
2019-04-20T13:33:17.571Z,34.3
2019-04-20T13:34:17.197Z,35.66
2019-04-20T13:35:16.714Z,34.8
2019-04-20T13:36:16.570Z,34.3
2019-04-20T13:37:16.481Z,33.61
2019-04-20T13:38:16.729Z,33.62
2019-04-20T13:39:16.508Z,33.43
2019-04-20T13:40:15.635Z,33.7
2019-04-20T13:41:17.627Z,34.2
2019-04-20T13:42:27.999Z,34.87
2019-04-20T13:43:17.587Z,34.87
2019-04-20T13:44:17.870Z,36.24
2019-04-20T13:45:16.824Z,36.05
2019-04-20T13:46:16.301Z,36.15
2019-04-20T13:47:16.589Z,36.73
2019-04-20T13:48:15.565Z,35.74
2019-04-20T13:49:15.820Z,35.43
2019-04-20T13:50:17.960Z,35.14
2019-04-20T13:51:15.726Z,35.24
2019-04-20T13:52:15.536Z,34.97
2019-04-20T13:53:15.354Z,35.64
2019-04-20T13:54:24.064Z,34.69
2019-04-20T13:55:15.703Z,35.57
2019-04-20T13:56:16.694Z,34.88
2019-04-20T13:57:16.197Z,34.69
2019-04-20T13:58:17.711Z,35.35
2019-04-20T13:59:16.900Z,35.96
2019-04-20T14:04:34.652Z,34.59
2019-04-20T14:04:49.074Z,34.59
2019-04-20T14:07:57.575Z,35.08
2019-04-20T14:08:11.523Z,34.67
2019-04-20T14:09:11.817Z,34.69
2019-04-20T14:10:11.802Z,35.37
2019-04-20T14:11:11.440Z,34.9
2019-04-20T14:12:29.792Z,35.57
2019-04-20T14:13:20.809Z,35.17
2019-04-20T14:14:11.435Z,34.69
2019-04-20T14:15:13.128Z,35.96
2019-04-20T14:16:11.817Z,35.45
2019-04-20T14:17:12.686Z,34.67
2019-04-20T14:18:11.682Z,34.87
2019-04-20T14:19:14.198Z,35.27
2019-04-20T14:20:20.254Z,34.79
2019-04-20T14:21:13.995Z,35.58
2019-04-20T14:22:13.183Z,35.37
2019-04-20T14:23:12.699Z,34.59
2019-04-20T14:24:12.975Z,35.66
2019-04-20T14:25:13.098Z,36.24
2019-04-20T14:26:12.592Z,35.66
2019-04-20T14:27:12.845Z,35.08
2019-04-20T14:28:12.914Z,35.57
2019-04-20T14:29:12.851Z,35.76
2019-04-20T14:30:12.898Z,36.26
2019-04-20T14:31:12.523Z,35.76
2019-04-20T14:32:14.775Z,35.66
2019-04-20T14:33:12.766Z,36.55
2019-04-20T14:34:12.906Z,36.07
2019-04-20T14:35:11.847Z,35.66
2019-04-20T14:36:12.758Z,34.98
2019-04-20T14:37:12.701Z,34.59
2019-04-20T14:38:13.107Z,34.61
2019-04-20T14:39:14.030Z,34.9
2019-04-20T14:40:12.885Z,35.39
2019-04-20T14:41:12.568Z,34.4
2019-04-20T14:42:23.060Z,34.4
2019-04-20T14:43:12.900Z,34.59
2019-04-20T14:44:13.934Z,34.69
2019-04-20T14:45:11.634Z,34.79
2019-04-20T14:46:12.655Z,35.86
2019-04-20T14:47:13.647Z,35.66
2019-04-20T14:48:12.589Z,35.66
2019-04-20T14:49:12.544Z,34.98
2019-04-20T14:50:13.631Z,34.5
2019-04-20T14:51:13.733Z,34.48
2019-04-20T14:52:11.562Z,35.06
2019-04-20T14:53:13.480Z,35.64
2019-04-20T14:54:13.752Z,36.32
2019-04-20T14:55:13.515Z,35.74
2019-04-20T14:56:13.274Z,35.66
2019-04-20T14:57:13.621Z,36.83
2019-04-20T14:58:11.567Z,36.73
2019-04-20T14:59:13.472Z,36.63
2019-04-20T15:00:13.684Z,36.54
2019-04-20T15:01:12.291Z,36.91
2019-04-20T15:02:12.683Z,36.71
2019-04-20T15:03:13.990Z,37.41
2019-04-20T15:04:20.155Z,36.91
2019-04-20T15:05:12.789Z,36.34
2019-04-20T15:06:13.594Z,36.54
2019-04-20T15:07:12.832Z,35.47
2019-04-20T15:08:12.349Z,35.47
2019-04-20T15:09:12.829Z,36.42
2019-04-20T15:10:12.979Z,36.15
2019-04-20T15:11:12.691Z,36.34
2019-04-20T15:12:12.793Z,35.47
2019-04-20T15:13:14.871Z,35.57
2019-04-20T15:14:11.678Z,34.97
2019-04-20T15:15:14.555Z,34.28
2019-04-20T15:16:12.714Z,33.98
2019-04-20T15:17:11.615Z,34.56
2019-04-20T15:18:13.368Z,34.87
2019-04-20T15:19:13.589Z,35.05
2019-04-20T15:20:12.369Z,35.05
2019-04-20T15:21:13.318Z,34.46
2019-04-20T15:22:13.463Z,34.46
2019-04-20T15:23:12.285Z,35.14
2019-04-20T15:24:13.313Z,34.58
2019-04-20T15:25:13.609Z,34.56
2019-04-20T15:26:12.779Z,34.36
2019-04-20T15:27:12.766Z,34.36
2019-04-20T15:28:14.434Z,34.75
2019-04-20T15:29:14.282Z,34.66
2019-04-20T15:30:12.062Z,34.75
2019-04-20T15:31:14.201Z,35.14
2019-04-20T15:32:13.204Z,34.85
2019-04-20T15:33:12.680Z,34.46
2019-04-20T15:34:12.826Z,33.86
2019-04-20T15:35:13.038Z,33.57
2019-04-20T15:36:13.790Z,33.38
2019-04-20T15:37:14.037Z,33.38
2019-04-20T15:38:11.777Z,33.36
2019-04-20T15:39:12.064Z,33.67
2019-04-20T15:40:12.966Z,34.25
2019-04-20T15:41:16.808Z,34.62
2019-04-20T15:42:12.546Z,34.62
2019-04-20T15:43:22.748Z,35.01
2019-04-20T15:44:13.191Z,34.62
2019-04-20T15:45:13.446Z,34.72
2019-04-20T15:46:13.025Z,34.53
2019-04-20T15:47:13.126Z,34.33
2019-04-20T15:48:14.157Z,34.72
2019-04-20T15:49:13.589Z,35.69
2019-04-20T15:50:13.759Z,35.4
2019-04-20T15:51:14.000Z,35.4
2019-04-20T15:52:25.780Z,35.69
2019-04-20T15:53:11.612Z,35.57
2019-04-20T15:54:13.492Z,36.64
2019-04-20T15:55:27.112Z,35.48
2019-04-20T15:56:14.522Z,35.67
2019-04-20T15:57:23.035Z,34.61
2019-04-20T15:58:14.246Z,35.38
2019-04-20T15:59:14.537Z,34.88
2019-04-20T16:00:14.199Z,34.99
2019-04-20T16:01:14.319Z,35.48
2019-04-20T16:02:13.444Z,35.56
2019-04-20T16:03:12.347Z,35.46
2019-04-20T16:04:27.432Z,35.94
2019-04-20T16:05:14.321Z,35.17
2019-04-20T16:06:13.532Z,35.07
2019-04-20T16:07:15.039Z,35.56
2019-04-20T16:08:14.134Z,35.66
2019-04-20T16:09:14.205Z,35.66
2019-04-20T16:10:12.936Z,35.85
2019-04-20T16:11:13.273Z,35.35
2019-04-20T16:12:12.935Z,35.36
2019-04-20T16:13:29.714Z,35.15
2019-04-20T16:14:13.430Z,34.67
2019-04-20T16:15:13.214Z,35.25
2019-04-20T16:16:14.098Z,35.54
2019-04-20T16:17:15.209Z,35.15
2019-04-20T16:18:13.044Z,35.44
2019-04-20T16:19:40.402Z,35.54
2019-04-20T16:20:27.490Z,35.91
2019-04-20T16:21:28.373Z,35.42
2019-04-20T16:22:21.645Z,35.42
2019-04-20T16:23:22.657Z,36.58
2019-04-20T16:24:22.317Z,37.07
2019-04-20T16:25:23.360Z,36.49
2019-04-20T16:26:21.760Z,36.49
2019-04-20T16:27:20.738Z,36.49
2019-04-20T16:28:21.597Z,36.47
2019-04-20T16:29:21.684Z,36.66
2019-04-20T16:30:20.718Z,36.49
2019-04-20T16:31:22.656Z,36.3
2019-04-20T16:32:22.301Z,35.42
2019-04-20T16:33:21.413Z,35.62
2019-04-20T16:34:21.788Z,35.62
2019-04-20T16:35:22.195Z,36.18
2019-04-20T16:36:22.725Z,36.28
2019-04-20T16:37:20.358Z,37.34
2019-04-20T16:38:22.347Z,36.96
2019-04-20T16:39:22.253Z,37.24
2019-04-20T16:40:20.550Z,37.24
2019-04-20T16:41:22.160Z,37.62
2019-04-20T16:42:22.272Z,37.42
2019-04-20T16:43:36.360Z,37.9
2019-04-20T16:44:21.033Z,37.81
2019-04-20T16:45:23.190Z,37.04
2019-04-20T16:46:25.775Z,36.55
2019-04-20T16:47:21.960Z,36.65
2019-04-20T16:48:22.021Z,37.32
2019-04-20T16:49:23.250Z,37.32
2019-04-20T16:50:20.257Z,37.62
2019-04-20T16:51:22.628Z,37.52
2019-04-20T16:52:23.019Z,37.62
2019-04-20T16:53:22.550Z,37.71
2019-04-20T16:54:21.650Z,38.1
2019-04-20T16:55:22.856Z,38.48
2019-04-20T16:56:24.362Z,38.48
2019-04-20T16:57:21.451Z,38.1
2019-04-20T16:58:21.673Z,37.88
2019-04-20T17:03:49.876Z,38.08
2019-04-20T17:04:30.662Z,38.76
2019-04-20T17:05:27.206Z,38.56
2019-04-20T17:06:27.194Z,38.08
2019-04-20T17:07:28.987Z,37.21
2019-04-20T17:08:29.182Z,37.19
2019-04-20T17:09:29.001Z,37.19
2019-04-20T17:10:26.612Z,37.48
2019-04-20T17:11:27.611Z,37.3
2019-04-20T17:12:27.683Z,37.7
2019-04-20T17:13:47.830Z,37.38